sensor_id;sensor_type;location;lat;lon;timestamp;P1;durP1;ratioP1;P2;durP2;ratioP2
11735;SDS011;5924;51.398;7.088;2022-11-28T00:01:23;6.80;;;6.10;;
11735;SDS011;5924;51.398;7.088;2022-11-28T00:03:54;6.03;;;5.33;;
11735;SDS011;5924;51.398;7.088;2022-11-28T00:06:20;5.70;;;5.20;;
11735;SDS011;5924;51.398;7.088;2022-11-28T00:08:46;4.50;;;4.40;;
11735;SDS011;5924;51.398;7.088;2022-11-28T00:11:13;6.20;;;5.70;;
11735;SDS011;5924;51.398;7.088;2022-11-28T00:13:40;6.63;;;5.87;;
11735;SDS011;5924;51.398;7.088;2022-11-28T00:16:07;6.10;;;5.60;;
11735;SDS011;5924;51.398;7.088;2022-11-28T00:18:36;9.30;;;7.20;;
11735;SDS011;5924;51.398;7.088;2022-11-28T00:21:04;5.83;;;5.33;;
11735;SDS011;5924;51.398;7.088;2022-11-28T00:23:31;6.73;;;5.70;;
11735;SDS011;5924;51.398;7.088;2022-11-28T00:26:03;7.00;;;5.53;;
11735;SDS011;5924;51.398;7.088;2022-11-28T00:28:33;6.70;;;6.07;;
11735;SDS011;5924;51.398;7.088;2022-11-28T00:30:59;8.10;;;5.77;;
11735;SDS011;5924;51.398;7.088;2022-11-28T00:33:25;7.50;;;5.90;;
11735;SDS011;5924;51.398;7.088;2022-11-28T00:35:56;9.13;;;6.10;;
11735;SDS011;5924;51.398;7.088;2022-11-28T00:38:25;7.73;;;5.63;;
11735;SDS011;5924;51.398;7.088;2022-11-28T00:41:01;6.57;;;5.33;;
11735;SDS011;5924;51.398;7.088;2022-11-28T00:43:48;7.17;;;5.60;;
11735;SDS011;5924;51.398;7.088;2022-11-28T00:46:15;5.20;;;4.90;;
11735;SDS011;5924;51.398;7.088;2022-11-28T00:48:41;7.83;;;5.83;;
11735;SDS011;5924;51.398;7.088;2022-11-28T00:51:12;5.70;;;5.40;;
11735;SDS011;5924;51.398;7.088;2022-11-28T00:53:43;5.70;;;5.27;;
11735;SDS011;5924;51.398;7.088;2022-11-28T00:56:12;5.13;;;4.83;;
11735;SDS011;5924;51.398;7.088;2022-11-28T00:58:39;6.53;;;5.33;;
11735;SDS011;5924;51.398;7.088;2022-11-28T01:01:10;5.97;;;5.43;;
11735;SDS011;5924;51.398;7.088;2022-11-28T01:03:44;10.33;;;6.20;;
11735;SDS011;5924;51.398;7.088;2022-11-28T01:06:12;5.93;;;5.53;;
11735;SDS011;5924;51.398;7.088;2022-11-28T01:08:43;6.23;;;5.57;;
11735;SDS011;5924;51.398;7.088;2022-11-28T01:11:10;6.07;;;5.33;;
11735;SDS011;5924;51.398;7.088;2022-11-28T01:13:37;5.93;;;4.70;;
11735;SDS011;5924;51.398;7.088;2022-11-28T01:16:03;6.57;;;5.60;;
11735;SDS011;5924;51.398;7.088;2022-11-28T01:18:29;5.77;;;5.20;;
11735;SDS011;5924;51.398;7.088;2022-11-28T01:20:54;6.93;;;5.70;;
11735;SDS011;5924;51.398;7.088;2022-11-28T01:23:20;5.77;;;5.37;;
11735;SDS011;5924;51.398;7.088;2022-11-28T01:25:46;5.07;;;4.77;;
11735;SDS011;5924;51.398;7.088;2022-11-28T01:28:11;6.07;;;5.47;;
11735;SDS011;5924;51.398;7.088;2022-11-28T01:30:37;6.30;;;5.80;;
11735;SDS011;5924;51.398;7.088;2022-11-28T01:33:03;5.23;;;4.73;;
11735;SDS011;5924;51.398;7.088;2022-11-28T01:35:28;7.63;;;6.03;;
11735;SDS011;5924;51.398;7.088;2022-11-28T01:37:54;8.30;;;5.37;;
11735;SDS011;5924;51.398;7.088;2022-11-28T01:40:20;5.70;;;5.40;;
11735;SDS011;5924;51.398;7.088;2022-11-28T01:42:46;5.73;;;5.23;;
11735;SDS011;5924;51.398;7.088;2022-11-28T01:47:39;6.03;;;5.43;;
11735;SDS011;5924;51.398;7.088;2022-11-28T01:50:06;6.67;;;5.20;;
11735;SDS011;5924;51.398;7.088;2022-11-28T01:52:32;6.13;;;5.53;;
11735;SDS011;5924;51.398;7.088;2022-11-28T01:55:02;5.57;;;5.20;;
11735;SDS011;5924;51.398;7.088;2022-11-28T01:57:29;6.77;;;5.23;;
11735;SDS011;5924;51.398;7.088;2022-11-28T01:59:57;6.30;;;4.73;;
11735;SDS011;5924;51.398;7.088;2022-11-28T02:02:39;4.73;;;4.53;;
11735;SDS011;5924;51.398;7.088;2022-11-28T02:05:05;9.40;;;5.57;;
11735;SDS011;5924;51.398;7.088;2022-11-28T02:07:32;6.27;;;5.33;;
11735;SDS011;5924;51.398;7.088;2022-11-28T02:09:58;5.70;;;5.30;;
11735;SDS011;5924;51.398;7.088;2022-11-28T02:37:54;5.20;;;4.87;;
11735;SDS011;5924;51.398;7.088;2022-11-28T02:40:28;5.50;;;5.13;;
11735;SDS011;5924;51.398;7.088;2022-11-28T02:43:08;6.00;;;5.50;;
11735;SDS011;5924;51.398;7.088;2022-11-28T02:45:46;4.67;;;4.47;;
11735;SDS011;5924;51.398;7.088;2022-11-28T02:48:38;5.17;;;4.87;;
11735;SDS011;5924;51.398;7.088;2022-11-28T02:51:32;6.10;;;5.60;;
11735;SDS011;5924;51.398;7.088;2022-11-28T02:54:02;5.37;;;5.07;;
11735;SDS011;5924;51.398;7.088;2022-11-28T02:56:31;5.10;;;4.80;;
11735;SDS011;5924;51.398;7.088;2022-11-28T02:58:57;5.30;;;4.87;;
11735;SDS011;5924;51.398;7.088;2022-11-28T03:01:24;9.43;;;5.77;;
11735;SDS011;5924;51.398;7.088;2022-11-28T03:04:02;5.43;;;4.90;;
11735;SDS011;5924;51.398;7.088;2022-11-28T03:06:52;5.80;;;5.33;;
11735;SDS011;5924;51.398;7.088;2022-11-28T03:12:35;6.20;;;5.67;;
11735;SDS011;5924;51.398;7.088;2022-11-28T03:15:15;5.53;;;5.13;;
11735;SDS011;5924;51.398;7.088;2022-11-28T03:17:53;10.10;;;5.10;;
11735;SDS011;5924;51.398;7.088;2022-11-28T03:23:43;6.43;;;5.93;;
11735;SDS011;5924;51.398;7.088;2022-11-28T03:26:16;8.50;;;5.90;;
11735;SDS011;5924;51.398;7.088;2022-11-28T03:28:54;7.00;;;5.10;;
11735;SDS011;5924;51.398;7.088;2022-11-28T03:31:37;7.23;;;4.40;;
11735;SDS011;5924;51.398;7.088;2022-11-28T03:34:08;4.73;;;4.30;;
11735;SDS011;5924;51.398;7.088;2022-11-28T03:36:39;4.63;;;4.13;;
11735;SDS011;5924;51.398;7.088;2022-11-28T03:39:12;5.60;;;5.03;;
11735;SDS011;5924;51.398;7.088;2022-11-28T03:41:47;6.27;;;5.50;;
11735;SDS011;5924;51.398;7.088;2022-11-28T03:44:22;6.10;;;5.50;;
11735;SDS011;5924;51.398;7.088;2022-11-28T03:47:13;5.30;;;5.00;;
11735;SDS011;5924;51.398;7.088;2022-11-28T03:49:42;5.40;;;5.00;;
11735;SDS011;5924;51.398;7.088;2022-11-28T03:52:15;5.40;;;5.00;;
11735;SDS011;5924;51.398;7.088;2022-11-28T03:54:58;5.53;;;5.10;;
11735;SDS011;5924;51.398;7.088;2022-11-28T03:57:49;8.80;;;5.27;;
11735;SDS011;5924;51.398;7.088;2022-11-28T04:00:22;5.70;;;5.30;;
11735;SDS011;5924;51.398;7.088;2022-11-28T04:03:06;5.50;;;5.20;;
11735;SDS011;5924;51.398;7.088;2022-11-28T04:05:47;5.80;;;5.37;;
11735;SDS011;5924;51.398;7.088;2022-11-28T04:08:37;5.97;;;5.63;;
11735;SDS011;5924;51.398;7.088;2022-11-28T04:11:08;5.87;;;5.37;;
11735;SDS011;5924;51.398;7.088;2022-11-28T04:13:38;6.33;;;5.90;;
11735;SDS011;5924;51.398;7.088;2022-11-28T04:16:27;6.50;;;6.00;;
11735;SDS011;5924;51.398;7.088;2022-11-28T04:19:14;6.03;;;5.43;;
11735;SDS011;5924;51.398;7.088;2022-11-28T04:24:38;5.53;;;5.13;;
11735;SDS011;5924;51.398;7.088;2022-11-28T04:27:13;5.00;;;4.80;;
11735;SDS011;5924;51.398;7.088;2022-11-28T04:29:44;9.63;;;5.40;;
11735;SDS011;5924;51.398;7.088;2022-11-28T04:32:13;5.67;;;5.30;;
11735;SDS011;5924;51.398;7.088;2022-11-28T04:34:43;5.63;;;5.13;;
11735;SDS011;5924;51.398;7.088;2022-11-28T04:37:11;5.30;;;4.90;;
11735;SDS011;5924;51.398;7.088;2022-11-28T04:39:38;6.33;;;5.80;;
11735;SDS011;5924;51.398;7.088;2022-11-28T04:42:13;4.80;;;4.50;;
11735;SDS011;5924;51.398;7.088;2022-11-28T04:44:43;5.77;;;5.17;;
11735;SDS011;5924;51.398;7.088;2022-11-28T04:47:22;5.10;;;4.57;;
11735;SDS011;5924;51.398;7.088;2022-11-28T04:49:49;5.03;;;4.83;;
11735;SDS011;5924;51.398;7.088;2022-11-28T04:57:47;4.17;;;3.97;;
11735;SDS011;5924;51.398;7.088;2022-11-28T05:00:17;5.13;;;4.63;;
11735;SDS011;5924;51.398;7.088;2022-11-28T05:02:45;5.47;;;5.07;;
11735;SDS011;5924;51.398;7.088;2022-11-28T05:05:19;5.60;;;5.10;;
11735;SDS011;5924;51.398;7.088;2022-11-28T05:07:46;5.47;;;4.97;;
11735;SDS011;5924;51.398;7.088;2022-11-28T05:10:13;4.83;;;4.50;;
11735;SDS011;5924;51.398;7.088;2022-11-28T05:12:40;4.87;;;4.40;;
11735;SDS011;5924;51.398;7.088;2022-11-28T05:15:07;5.47;;;5.10;;
11735;SDS011;5924;51.398;7.088;2022-11-28T05:17:33;7.70;;;5.60;;
11735;SDS011;5924;51.398;7.088;2022-11-28T05:19:59;5.40;;;4.90;;
11735;SDS011;5924;51.398;7.088;2022-11-28T05:22:24;9.97;;;4.90;;
11735;SDS011;5924;51.398;7.088;2022-11-28T05:24:50;10.13;;;5.53;;
11735;SDS011;5924;51.398;7.088;2022-11-28T05:27:16;6.30;;;5.80;;
11735;SDS011;5924;51.398;7.088;2022-11-28T05:29:42;8.20;;;5.67;;
11735;SDS011;5924;51.398;7.088;2022-11-28T05:32:11;6.63;;;5.87;;
11735;SDS011;5924;51.398;7.088;2022-11-28T05:34:37;6.03;;;5.53;;
11735;SDS011;5924;51.398;7.088;2022-11-28T05:37:03;5.77;;;5.30;;
11735;SDS011;5924;51.398;7.088;2022-11-28T05:39:29;6.57;;;5.90;;
11735;SDS011;5924;51.398;7.088;2022-11-28T05:41:55;5.67;;;5.20;;
11735;SDS011;5924;51.398;7.088;2022-11-28T05:44:24;11.63;;;6.00;;
11735;SDS011;5924;51.398;7.088;2022-11-28T05:46:49;11.30;;;5.30;;
11735;SDS011;5924;51.398;7.088;2022-11-28T05:49:15;5.83;;;5.40;;
11735;SDS011;5924;51.398;7.088;2022-11-28T05:51:41;5.67;;;5.27;;
11735;SDS011;5924;51.398;7.088;2022-11-28T05:54:06;5.73;;;5.30;;
11735;SDS011;5924;51.398;7.088;2022-11-28T05:56:32;5.60;;;5.23;;
11735;SDS011;5924;51.398;7.088;2022-11-28T05:58:57;6.00;;;5.17;;
11735;SDS011;5924;51.398;7.088;2022-11-28T06:01:25;5.50;;;5.20;;
11735;SDS011;5924;51.398;7.088;2022-11-28T06:03:52;5.87;;;5.47;;
11735;SDS011;5924;51.398;7.088;2022-11-28T06:06:23;6.73;;;5.10;;
11735;SDS011;5924;51.398;7.088;2022-11-28T06:08:50;6.23;;;5.70;;
11735;SDS011;5924;51.398;7.088;2022-11-28T06:11:16;4.90;;;4.50;;
11735;SDS011;5924;51.398;7.088;2022-11-28T06:13:44;5.20;;;4.83;;
11735;SDS011;5924;51.398;7.088;2022-11-28T06:16:13;5.00;;;4.43;;
11735;SDS011;5924;51.398;7.088;2022-11-28T06:18:40;5.47;;;5.07;;
11735;SDS011;5924;51.398;7.088;2022-11-28T06:21:07;5.30;;;5.00;;
11735;SDS011;5924;51.398;7.088;2022-11-28T06:23:34;5.93;;;5.43;;
11735;SDS011;5924;51.398;7.088;2022-11-28T06:26:07;6.00;;;5.50;;
11735;SDS011;5924;51.398;7.088;2022-11-28T06:28:34;6.43;;;5.70;;
11735;SDS011;5924;51.398;7.088;2022-11-28T06:31:00;5.30;;;5.10;;
11735;SDS011;5924;51.398;7.088;2022-11-28T06:33:27;8.03;;;5.50;;
11735;SDS011;5924;51.398;7.088;2022-11-28T06:35:59;7.20;;;5.97;;
11735;SDS011;5924;51.398;7.088;2022-11-28T06:38:25;10.60;;;5.70;;
11735;SDS011;5924;51.398;7.088;2022-11-28T06:40:54;6.03;;;5.63;;
11735;SDS011;5924;51.398;7.088;2022-11-28T06:43:23;6.47;;;5.90;;
11735;SDS011;5924;51.398;7.088;2022-11-28T06:45:49;6.57;;;5.47;;
11735;SDS011;5924;51.398;7.088;2022-11-28T06:48:15;6.80;;;5.80;;
11735;SDS011;5924;51.398;7.088;2022-11-28T06:50:40;6.10;;;5.60;;
11735;SDS011;5924;51.398;7.088;2022-11-28T06:53:06;6.20;;;5.57;;
11735;SDS011;5924;51.398;7.088;2022-11-28T06:55:32;6.20;;;5.70;;
11735;SDS011;5924;51.398;7.088;2022-11-28T06:57:57;7.83;;;6.20;;
11735;SDS011;5924;51.398;7.088;2022-11-28T07:00:23;6.57;;;6.07;;
11735;SDS011;5924;51.398;7.088;2022-11-28T07:02:49;8.63;;;5.63;;
11735;SDS011;5924;51.398;7.088;2022-11-28T07:05:15;7.20;;;5.87;;
11735;SDS011;5924;51.398;7.088;2022-11-28T07:07:44;6.63;;;5.93;;
11735;SDS011;5924;51.398;7.088;2022-11-28T07:10:10;9.00;;;7.03;;
11735;SDS011;5924;51.398;7.088;2022-11-28T07:12:35;5.90;;;5.57;;
11735;SDS011;5924;51.398;7.088;2022-11-28T07:15:01;6.17;;;5.60;;
11735;SDS011;5924;51.398;7.088;2022-11-28T07:17:27;7.07;;;6.30;;
11735;SDS011;5924;51.398;7.088;2022-11-28T07:19:53;6.93;;;6.27;;
11735;SDS011;5924;51.398;7.088;2022-11-28T07:22:18;6.40;;;5.90;;
11735;SDS011;5924;51.398;7.088;2022-11-28T07:24:45;7.70;;;5.73;;
11735;SDS011;5924;51.398;7.088;2022-11-28T07:27:12;7.07;;;6.47;;
11735;SDS011;5924;51.398;7.088;2022-11-28T07:29:38;11.80;;;6.73;;
11735;SDS011;5924;51.398;7.088;2022-11-28T07:32:03;6.47;;;5.97;;
11735;SDS011;5924;51.398;7.088;2022-11-28T07:34:31;7.00;;;6.40;;
11735;SDS011;5924;51.398;7.088;2022-11-28T07:36:57;6.03;;;5.50;;
11735;SDS011;5924;51.398;7.088;2022-11-28T07:39:23;7.67;;;6.33;;
11735;SDS011;5924;51.398;7.088;2022-11-28T07:41:48;8.40;;;5.87;;
11735;SDS011;5924;51.398;7.088;2022-11-28T07:44:14;7.20;;;6.30;;
11735;SDS011;5924;51.398;7.088;2022-11-28T07:46:42;6.00;;;5.40;;
11735;SDS011;5924;51.398;7.088;2022-11-28T07:49:09;6.23;;;5.70;;
11735;SDS011;5924;51.398;7.088;2022-11-28T07:51:35;6.47;;;5.97;;
11735;SDS011;5924;51.398;7.088;2022-11-28T07:54:01;6.70;;;6.13;;
11735;SDS011;5924;51.398;7.088;2022-11-28T07:56:29;5.80;;;5.30;;
11735;SDS011;5924;51.398;7.088;2022-11-28T07:58:56;5.07;;;4.87;;
11735;SDS011;5924;51.398;7.088;2022-11-28T08:01:28;6.50;;;5.23;;
11735;SDS011;5924;51.398;7.088;2022-11-28T08:03:56;6.70;;;6.20;;
11735;SDS011;5924;51.398;7.088;2022-11-28T08:06:23;7.17;;;5.77;;
11735;SDS011;5924;51.398;7.088;2022-11-28T08:08:53;7.80;;;5.77;;
11735;SDS011;5924;51.398;7.088;2022-11-28T08:11:20;10.50;;;6.00;;
11735;SDS011;5924;51.398;7.088;2022-11-28T08:13:47;6.47;;;6.00;;
11735;SDS011;5924;51.398;7.088;2022-11-28T08:16:15;6.27;;;5.77;;
11735;SDS011;5924;51.398;7.088;2022-11-28T08:18:45;6.00;;;5.60;;
11735;SDS011;5924;51.398;7.088;2022-11-28T08:21:13;6.50;;;5.90;;
11735;SDS011;5924;51.398;7.088;2022-11-28T08:23:50;8.43;;;7.23;;
11735;SDS011;5924;51.398;7.088;2022-11-28T08:26:17;11.20;;;6.77;;
11735;SDS011;5924;51.398;7.088;2022-11-28T08:28:45;6.50;;;6.00;;
11735;SDS011;5924;51.398;7.088;2022-11-28T08:31:11;6.30;;;5.80;;
11735;SDS011;5924;51.398;7.088;2022-11-28T08:33:37;8.33;;;7.30;;
11735;SDS011;5924;51.398;7.088;2022-11-28T08:36:04;12.27;;;8.00;;
11735;SDS011;5924;51.398;7.088;2022-11-28T08:38:31;9.27;;;6.10;;
11735;SDS011;5924;51.398;7.088;2022-11-28T08:41:03;5.60;;;5.30;;
11735;SDS011;5924;51.398;7.088;2022-11-28T08:43:30;9.20;;;6.53;;
11735;SDS011;5924;51.398;7.088;2022-11-28T08:45:57;6.37;;;5.77;;
11735;SDS011;5924;51.398;7.088;2022-11-28T08:48:23;9.47;;;7.07;;
11735;SDS011;5924;51.398;7.088;2022-11-28T08:50:49;7.93;;;5.60;;
11735;SDS011;5924;51.398;7.088;2022-11-28T08:53:15;6.33;;;5.40;;
11735;SDS011;5924;51.398;7.088;2022-11-28T08:55:41;6.07;;;5.33;;
11735;SDS011;5924;51.398;7.088;2022-11-28T08:58:08;6.33;;;5.60;;
11735;SDS011;5924;51.398;7.088;2022-11-28T09:00:38;5.90;;;5.40;;
11735;SDS011;5924;51.398;7.088;2022-11-28T09:03:04;6.60;;;6.10;;
11735;SDS011;5924;51.398;7.088;2022-11-28T09:05:29;6.23;;;5.63;;
11735;SDS011;5924;51.398;7.088;2022-11-28T09:07:55;6.40;;;5.80;;
11735;SDS011;5924;51.398;7.088;2022-11-28T09:10:22;5.80;;;5.50;;
11735;SDS011;5924;51.398;7.088;2022-11-28T09:12:49;7.80;;;5.20;;
11735;SDS011;5924;51.398;7.088;2022-11-28T09:15:17;7.23;;;6.17;;
11735;SDS011;5924;51.398;7.088;2022-11-28T09:17:43;6.33;;;5.80;;
11735;SDS011;5924;51.398;7.088;2022-11-28T09:20:10;9.63;;;6.30;;
11735;SDS011;5924;51.398;7.088;2022-11-28T09:22:36;6.90;;;5.80;;
11735;SDS011;5924;51.398;7.088;2022-11-28T09:25:01;6.03;;;5.53;;
11735;SDS011;5924;51.398;7.088;2022-11-28T09:27:27;6.37;;;5.70;;
11735;SDS011;5924;51.398;7.088;2022-11-28T09:29:53;6.47;;;5.97;;
11735;SDS011;5924;51.398;7.088;2022-11-28T09:32:18;5.53;;;5.23;;
11735;SDS011;5924;51.398;7.088;2022-11-28T09:34:44;7.73;;;6.50;;
11735;SDS011;5924;51.398;7.088;2022-11-28T09:37:09;6.43;;;5.40;;
11735;SDS011;5924;51.398;7.088;2022-11-28T09:39:35;6.50;;;5.83;;
11735;SDS011;5924;51.398;7.088;2022-11-28T09:44:36;7.10;;;6.40;;
11735;SDS011;5924;51.398;7.088;2022-11-28T09:47:20;12.10;;;6.47;;
11735;SDS011;5924;51.398;7.088;2022-11-28T09:49:51;6.60;;;6.00;;
11735;SDS011;5924;51.398;7.088;2022-11-28T09:52:43;11.47;;;6.90;;
11735;SDS011;5924;51.398;7.088;2022-11-28T09:58:17;7.03;;;6.37;;
11735;SDS011;5924;51.398;7.088;2022-11-28T10:01:02;10.47;;;7.20;;
11735;SDS011;5924;51.398;7.088;2022-11-28T10:04:03;6.83;;;6.13;;
11735;SDS011;5924;51.398;7.088;2022-11-28T10:11:56;6.60;;;6.10;;
11735;SDS011;5924;51.398;7.088;2022-11-28T10:14:56;11.97;;;6.90;;
11735;SDS011;5924;51.398;7.088;2022-11-28T10:20:08;10.03;;;5.70;;
11735;SDS011;5924;51.398;7.088;2022-11-28T10:25:27;7.13;;;6.10;;
11735;SDS011;5924;51.398;7.088;2022-11-28T10:27:59;6.80;;;6.30;;
11735;SDS011;5924;51.398;7.088;2022-11-28T10:30:26;8.80;;;7.10;;
11735;SDS011;5924;51.398;7.088;2022-11-28T10:38:25;7.30;;;6.70;;
11735;SDS011;5924;51.398;7.088;2022-11-28T10:43:57;16.03;;;6.87;;
11735;SDS011;5924;51.398;7.088;2022-11-28T10:49:25;7.43;;;6.83;;
11735;SDS011;5924;51.398;7.088;2022-11-28T10:52:18;6.37;;;5.87;;
11735;SDS011;5924;51.398;7.088;2022-11-28T10:55:10;6.77;;;6.37;;
11735;SDS011;5924;51.398;7.088;2022-11-28T10:57:52;7.90;;;6.77;;
11735;SDS011;5924;51.398;7.088;2022-11-28T11:00:22;8.97;;;6.53;;
11735;SDS011;5924;51.398;7.088;2022-11-28T11:02:51;7.07;;;6.37;;
11735;SDS011;5924;51.398;7.088;2022-11-28T11:05:32;7.10;;;6.50;;
11735;SDS011;5924;51.398;7.088;2022-11-28T11:13:33;8.37;;;6.30;;
11735;SDS011;5924;51.398;7.088;2022-11-28T11:16:17;8.80;;;7.33;;
11735;SDS011;5924;51.398;7.088;2022-11-28T11:23:34;9.60;;;7.40;;
11735;SDS011;5924;51.398;7.088;2022-11-28T11:25:59;9.63;;;6.37;;
11735;SDS011;5924;51.398;7.088;2022-11-28T11:28:59;7.43;;;6.30;;
11735;SDS011;5924;51.398;7.088;2022-11-28T11:31:23;7.80;;;7.10;;
11735;SDS011;5924;51.398;7.088;2022-11-28T11:34:02;7.87;;;7.07;;
11735;SDS011;5924;51.398;7.088;2022-11-28T11:36:31;8.33;;;7.20;;
11735;SDS011;5924;51.398;7.088;2022-11-28T11:39:20;9.13;;;6.67;;
11735;SDS011;5924;51.398;7.088;2022-11-28T11:41:47;12.20;;;6.97;;
11735;SDS011;5924;51.398;7.088;2022-11-28T11:46:49;8.90;;;7.17;;
11735;SDS011;5924;51.398;7.088;2022-11-28T11:49:36;10.07;;;7.70;;
11735;SDS011;5924;51.398;7.088;2022-11-28T11:52:05;12.93;;;7.93;;
11735;SDS011;5924;51.398;7.088;2022-11-28T11:54:34;16.17;;;8.13;;
11735;SDS011;5924;51.398;7.088;2022-11-28T11:56:59;12.17;;;7.40;;
11735;SDS011;5924;51.398;7.088;2022-11-28T12:00:13;11.27;;;8.40;;
11735;SDS011;5924;51.398;7.088;2022-11-28T12:02:39;13.60;;;9.03;;
11735;SDS011;5924;51.398;7.088;2022-11-28T12:05:10;10.93;;;8.40;;
11735;SDS011;5924;51.398;7.088;2022-11-28T12:07:56;9.70;;;7.60;;
11735;SDS011;5924;51.398;7.088;2022-11-28T12:10:27;9.40;;;7.63;;
11735;SDS011;5924;51.398;7.088;2022-11-28T12:12:56;10.83;;;8.20;;
11735;SDS011;5924;51.398;7.088;2022-11-28T12:15:28;11.13;;;8.40;;
11735;SDS011;5924;51.398;7.088;2022-11-28T12:18:12;17.80;;;9.40;;
11735;SDS011;5924;51.398;7.088;2022-11-28T12:21:03;23.10;;;9.20;;
11735;SDS011;5924;51.398;7.088;2022-11-28T12:26:31;8.53;;;7.73;;
11735;SDS011;5924;51.398;7.088;2022-11-28T12:29:02;9.63;;;8.00;;
11735;SDS011;5924;51.398;7.088;2022-11-28T12:31:48;10.50;;;7.67;;
11735;SDS011;5924;51.398;7.088;2022-11-28T12:34:42;11.83;;;8.87;;
11735;SDS011;5924;51.398;7.088;2022-11-28T12:50:58;18.87;;;9.20;;
11735;SDS011;5924;51.398;7.088;2022-11-28T13:02:25;10.23;;;8.57;;
11735;SDS011;5924;51.398;7.088;2022-11-28T13:07:32;9.40;;;8.13;;
11735;SDS011;5924;51.398;7.088;2022-11-28T13:20:44;7.93;;;7.23;;
11735;SDS011;5924;51.398;7.088;2022-11-28T13:23:40;8.13;;;7.33;;
11735;SDS011;5924;51.398;7.088;2022-11-28T13:29:20;7.40;;;6.90;;
11735;SDS011;5924;51.398;7.088;2022-11-28T13:34:41;6.90;;;6.40;;
11735;SDS011;5924;51.398;7.088;2022-11-28T13:37:09;6.20;;;5.80;;
11735;SDS011;5924;51.398;7.088;2022-11-28T13:40:05;6.87;;;6.37;;
11735;SDS011;5924;51.398;7.088;2022-11-28T13:42:41;10.47;;;7.70;;
11735;SDS011;5924;51.398;7.088;2022-11-28T13:45:20;7.63;;;6.97;;
11735;SDS011;5924;51.398;7.088;2022-11-28T13:47:49;7.47;;;6.77;;
11735;SDS011;5924;51.398;7.088;2022-11-28T13:55:47;8.07;;;7.30;;
11735;SDS011;5924;51.398;7.088;2022-11-28T13:58:15;7.37;;;6.87;;
11735;SDS011;5924;51.398;7.088;2022-11-28T14:03:42;6.80;;;6.20;;
11735;SDS011;5924;51.398;7.088;2022-11-28T14:06:14;6.30;;;5.80;;
11735;SDS011;5924;51.398;7.088;2022-11-28T14:08:46;6.87;;;6.23;;
11735;SDS011;5924;51.398;7.088;2022-11-28T14:11:32;7.00;;;6.50;;
11735;SDS011;5924;51.398;7.088;2022-11-28T14:25:08;8.23;;;7.40;;
11735;SDS011;5924;51.398;7.088;2022-11-28T14:27:45;8.10;;;7.40;;
11735;SDS011;5924;51.398;7.088;2022-11-28T14:30:23;6.90;;;6.50;;
11735;SDS011;5924;51.398;7.088;2022-11-28T14:32:54;7.23;;;6.70;;
11735;SDS011;5924;51.398;7.088;2022-11-28T14:41:06;6.10;;;5.53;;
11735;SDS011;5924;51.398;7.088;2022-11-28T14:43:39;6.17;;;5.77;;
11735;SDS011;5924;51.398;7.088;2022-11-28T14:46:17;5.07;;;4.87;;
11735;SDS011;5924;51.398;7.088;2022-11-28T14:54:20;4.80;;;4.60;;
11735;SDS011;5924;51.398;7.088;2022-11-28T14:56:50;5.00;;;4.80;;
11735;SDS011;5924;51.398;7.088;2022-11-28T14:59:17;4.70;;;4.50;;
11735;SDS011;5924;51.398;7.088;2022-11-28T15:09:40;5.33;;;5.03;;
11735;SDS011;5924;51.398;7.088;2022-11-28T15:12:21;3.90;;;3.80;;
11735;SDS011;5924;51.398;7.088;2022-11-28T15:14:54;5.63;;;5.33;;
11735;SDS011;5924;51.398;7.088;2022-11-28T15:17:26;4.53;;;4.43;;
11735;SDS011;5924;51.398;7.088;2022-11-28T15:19:56;4.23;;;3.93;;
11735;SDS011;5924;51.398;7.088;2022-11-28T15:22:31;12.80;;;6.00;;
11735;SDS011;5924;51.398;7.088;2022-11-28T15:27:47;5.93;;;5.40;;
11735;SDS011;5924;51.398;7.088;2022-11-28T15:30:14;7.23;;;5.87;;
11735;SDS011;5924;51.398;7.088;2022-11-28T15:32:48;5.33;;;4.93;;
11735;SDS011;5924;51.398;7.088;2022-11-28T15:35:15;5.57;;;5.27;;
11735;SDS011;5924;51.398;7.088;2022-11-28T15:37:46;6.07;;;5.57;;
11735;SDS011;5924;51.398;7.088;2022-11-28T15:40:22;6.77;;;6.13;;
11735;SDS011;5924;51.398;7.088;2022-11-28T15:42:51;6.77;;;5.90;;
11735;SDS011;5924;51.398;7.088;2022-11-28T15:45:21;8.90;;;6.73;;
11735;SDS011;5924;51.398;7.088;2022-11-28T15:47:47;6.87;;;6.27;;
11735;SDS011;5924;51.398;7.088;2022-11-28T15:50:15;11.83;;;7.40;;
11735;SDS011;5924;51.398;7.088;2022-11-28T15:55:38;8.33;;;7.40;;
11735;SDS011;5924;51.398;7.088;2022-11-28T15:58:22;7.30;;;6.60;;
11735;SDS011;5924;51.398;7.088;2022-11-28T16:03:25;7.00;;;6.50;;
11735;SDS011;5924;51.398;7.088;2022-11-28T16:05:54;11.20;;;8.60;;
11735;SDS011;5924;51.398;7.088;2022-11-28T16:08:27;11.03;;;9.30;;
11735;SDS011;5924;51.398;7.088;2022-11-28T16:11:02;10.70;;;8.90;;
11735;SDS011;5924;51.398;7.088;2022-11-28T16:13:30;9.07;;;7.93;;
11735;SDS011;5924;51.398;7.088;2022-11-28T16:15:56;18.73;;;9.37;;
11735;SDS011;5924;51.398;7.088;2022-11-28T16:18:25;12.37;;;10.00;;
11735;SDS011;5924;51.398;7.088;2022-11-28T16:20:52;11.97;;;9.40;;
11735;SDS011;5924;51.398;7.088;2022-11-28T16:23:20;13.67;;;8.50;;
11735;SDS011;5924;51.398;7.088;2022-11-28T16:26:02;13.73;;;10.17;;
11735;SDS011;5924;51.398;7.088;2022-11-28T16:28:35;17.13;;;9.07;;
11735;SDS011;5924;51.398;7.088;2022-11-28T16:31:12;9.27;;;7.70;;
11735;SDS011;5924;51.398;7.088;2022-11-28T16:33:44;9.43;;;7.80;;
11735;SDS011;5924;51.398;7.088;2022-11-28T16:36:29;12.67;;;8.90;;
11735;SDS011;5924;51.398;7.088;2022-11-28T16:41:38;22.77;;;10.10;;
11735;SDS011;5924;51.398;7.088;2022-11-28T16:44:27;25.97;;;14.60;;
11735;SDS011;5924;51.398;7.088;2022-11-28T16:46:54;34.20;;;17.77;;
11735;SDS011;5924;51.398;7.088;2022-11-28T16:54:45;26.27;;;13.30;;
11735;SDS011;5924;51.398;7.088;2022-11-28T16:57:12;31.17;;;14.17;;
11735;SDS011;5924;51.398;7.088;2022-11-28T16:59:41;52.73;;;18.43;;
11735;SDS011;5924;51.398;7.088;2022-11-28T17:02:26;32.03;;;12.93;;
11735;SDS011;5924;51.398;7.088;2022-11-28T17:04:51;21.93;;;11.20;;
11735;SDS011;5924;51.398;7.088;2022-11-28T17:07:22;19.23;;;11.73;;
11735;SDS011;5924;51.398;7.088;2022-11-28T17:09:48;19.63;;;10.90;;
11735;SDS011;5924;51.398;7.088;2022-11-28T17:12:25;18.80;;;10.83;;
11735;SDS011;5924;51.398;7.088;2022-11-28T17:14:51;19.10;;;10.70;;
11735;SDS011;5924;51.398;7.088;2022-11-28T17:17:18;18.00;;;10.03;;
11735;SDS011;5924;51.398;7.088;2022-11-28T17:19:45;12.53;;;8.87;;
11735;SDS011;5924;51.398;7.088;2022-11-28T17:22:12;11.73;;;8.50;;
11735;SDS011;5924;51.398;7.088;2022-11-28T17:24:40;8.83;;;7.33;;
11735;SDS011;5924;51.398;7.088;2022-11-28T17:27:06;7.50;;;6.77;;
11735;SDS011;5924;51.398;7.088;2022-11-28T17:29:35;9.77;;;8.53;;
11735;SDS011;5924;51.398;7.088;2022-11-28T17:32:00;10.10;;;9.10;;
11735;SDS011;5924;51.398;7.088;2022-11-28T17:34:27;19.93;;;11.57;;
11735;SDS011;5924;51.398;7.088;2022-11-28T17:36:55;14.90;;;10.90;;
11735;SDS011;5924;51.398;7.088;2022-11-28T17:39:22;14.37;;;11.40;;
11735;SDS011;5924;51.398;7.088;2022-11-28T17:41:48;14.13;;;10.70;;
11735;SDS011;5924;51.398;7.088;2022-11-28T17:44:21;26.90;;;15.93;;
11735;SDS011;5924;51.398;7.088;2022-11-28T17:46:49;24.77;;;15.07;;
11735;SDS011;5924;51.398;7.088;2022-11-28T17:49:16;23.33;;;15.60;;
11735;SDS011;5924;51.398;7.088;2022-11-28T17:51:42;23.87;;;13.03;;
11735;SDS011;5924;51.398;7.088;2022-11-28T17:54:11;19.93;;;12.80;;
11735;SDS011;5924;51.398;7.088;2022-11-28T17:56:45;21.00;;;13.07;;
11735;SDS011;5924;51.398;7.088;2022-11-28T17:59:12;15.43;;;11.80;;
11735;SDS011;5924;51.398;7.088;2022-11-28T18:01:40;12.70;;;9.97;;
11735;SDS011;5924;51.398;7.088;2022-11-28T18:04:06;18.53;;;13.63;;
11735;SDS011;5924;51.398;7.088;2022-11-28T18:06:32;16.10;;;12.00;;
11735;SDS011;5924;51.398;7.088;2022-11-28T18:08:58;19.73;;;12.67;;
11735;SDS011;5924;51.398;7.088;2022-11-28T18:11:25;15.77;;;11.87;;
11735;SDS011;5924;51.398;7.088;2022-11-28T18:13:52;13.67;;;11.47;;
11735;SDS011;5924;51.398;7.088;2022-11-28T18:16:19;14.23;;;11.10;;
11735;SDS011;5924;51.398;7.088;2022-11-28T18:18:47;19.43;;;14.37;;
11735;SDS011;5924;51.398;7.088;2022-11-28T18:21:13;18.37;;;12.90;;
11735;SDS011;5924;51.398;7.088;2022-11-28T18:23:40;20.83;;;14.20;;